sensor_id;sensor_type;location;lat;lon;timestamp;P1;durP1;ratioP1;P2;durP2;ratioP2
20076;SDS011;12348;42.710;23.378;2022-07-29T00:01:16;16.17;;;10.50;;
20076;SDS011;12348;42.710;23.378;2022-07-29T00:03:44;15.80;;;12.03;;
20076;SDS011;12348;42.710;23.378;2022-07-29T00:06:11;13.37;;;10.20;;
20076;SDS011;12348;42.710;23.378;2022-07-29T00:08:39;14.80;;;9.70;;
20076;SDS011;12348;42.710;23.378;2022-07-29T00:11:06;13.90;;;10.07;;
20076;SDS011;12348;42.710;23.378;2022-07-29T00:13:32;16.07;;;11.43;;
20076;SDS011;12348;42.710;23.378;2022-07-29T00:15:59;18.03;;;12.00;;
20076;SDS011;12348;42.710;23.378;2022-07-29T00:18:26;16.77;;;12.03;;
20076;SDS011;12348;42.710;23.378;2022-07-29T00:20:53;16.67;;;11.67;;
20076;SDS011;12348;42.710;23.378;2022-07-29T00:23:20;16.83;;;11.20;;
20076;SDS011;12348;42.710;23.378;2022-07-29T00:25:48;19.27;;;12.30;;
20076;SDS011;12348;42.710;23.378;2022-07-29T00:28:15;19.07;;;12.00;;
20076;SDS011;12348;42.710;23.378;2022-07-29T00:30:42;21.83;;;13.27;;
20076;SDS011;12348;42.710;23.378;2022-07-29T00:33:09;20.97;;;13.40;;
20076;SDS011;12348;42.710;23.378;2022-07-29T00:35:36;20.03;;;12.37;;
20076;SDS011;12348;42.710;23.378;2022-07-29T00:38:11;17.43;;;11.57;;
20076;SDS011;12348;42.710;23.378;2022-07-29T00:40:39;20.80;;;12.53;;
20076;SDS011;12348;42.710;23.378;2022-07-29T00:43:08;19.57;;;12.07;;
20076;SDS011;12348;42.710;23.378;2022-07-29T00:45:35;16.67;;;12.57;;
20076;SDS011;12348;42.710;23.378;2022-07-29T00:48:02;18.40;;;12.67;;
20076;SDS011;12348;42.710;23.378;2022-07-29T00:50:30;20.60;;;12.73;;
20076;SDS011;12348;42.710;23.378;2022-07-29T00:52:57;15.67;;;12.53;;
20076;SDS011;12348;42.710;23.378;2022-07-29T00:55:24;19.80;;;13.40;;
20076;SDS011;12348;42.710;23.378;2022-07-29T00:57:51;19.00;;;11.67;;
20076;SDS011;12348;42.710;23.378;2022-07-29T01:00:21;19.00;;;12.87;;
20076;SDS011;12348;42.710;23.378;2022-07-29T01:02:50;21.40;;;12.17;;
20076;SDS011;12348;42.710;23.378;2022-07-29T01:05:17;18.20;;;12.20;;
20076;SDS011;12348;42.710;23.378;2022-07-29T01:07:45;18.73;;;14.07;;
20076;SDS011;12348;42.710;23.378;2022-07-29T01:10:14;22.37;;;13.00;;
20076;SDS011;12348;42.710;23.378;2022-07-29T01:12:42;22.57;;;13.20;;
20076;SDS011;12348;42.710;23.378;2022-07-29T01:15:11;19.57;;;13.23;;
20076;SDS011;12348;42.710;23.378;2022-07-29T01:17:41;21.53;;;13.40;;
20076;SDS011;12348;42.710;23.378;2022-07-29T01:20:12;20.20;;;13.70;;
20076;SDS011;12348;42.710;23.378;2022-07-29T01:25:54;21.07;;;14.97;;
20076;SDS011;12348;42.710;23.378;2022-07-29T01:28:42;21.07;;;14.47;;
20076;SDS011;12348;42.710;23.378;2022-07-29T01:31:19;23.90;;;14.70;;
20076;SDS011;12348;42.710;23.378;2022-07-29T01:33:58;22.47;;;15.70;;
20076;SDS011;12348;42.710;23.378;2022-07-29T01:36:30;24.83;;;15.20;;
20076;SDS011;12348;42.710;23.378;2022-07-29T01:39:02;25.00;;;16.13;;
20076;SDS011;12348;42.710;23.378;2022-07-29T01:41:32;27.50;;;15.60;;
20076;SDS011;12348;42.710;23.378;2022-07-29T01:44:09;22.60;;;15.13;;
20076;SDS011;12348;42.710;23.378;2022-07-29T01:46:40;26.30;;;16.03;;
20076;SDS011;12348;42.710;23.378;2022-07-29T01:49:13;20.00;;;15.53;;
20076;SDS011;12348;42.710;23.378;2022-07-29T01:51:44;22.37;;;15.27;;
20076;SDS011;12348;42.710;23.378;2022-07-29T01:54:16;24.73;;;17.23;;
20076;SDS011;12348;42.710;23.378;2022-07-29T01:56:47;28.03;;;16.60;;
20076;SDS011;12348;42.710;23.378;2022-07-29T01:59:18;27.50;;;17.53;;
20076;SDS011;12348;42.710;23.378;2022-07-29T02:01:46;25.67;;;16.80;;
20076;SDS011;12348;42.710;23.378;2022-07-29T02:04:16;24.17;;;16.93;;
20076;SDS011;12348;42.710;23.378;2022-07-29T02:06:45;23.77;;;16.60;;
20076;SDS011;12348;42.710;23.378;2022-07-29T02:09:15;23.10;;;16.73;;
20076;SDS011;12348;42.710;23.378;2022-07-29T02:11:47;26.80;;;17.47;;
20076;SDS011;12348;42.710;23.378;2022-07-29T02:14:19;29.93;;;17.97;;
20076;SDS011;12348;42.710;23.378;2022-07-29T02:16:49;29.17;;;16.33;;
20076;SDS011;12348;42.710;23.378;2022-07-29T02:19:21;40.30;;;19.23;;
20076;SDS011;12348;42.710;23.378;2022-07-29T02:21:50;24.93;;;17.13;;
20076;SDS011;12348;42.710;23.378;2022-07-29T02:24:19;29.30;;;16.37;;
20076;SDS011;12348;42.710;23.378;2022-07-29T02:26:49;25.37;;;16.43;;
20076;SDS011;12348;42.710;23.378;2022-07-29T02:29:19;26.43;;;16.13;;
20076;SDS011;12348;42.710;23.378;2022-07-29T02:31:48;27.43;;;17.07;;
20076;SDS011;12348;42.710;23.378;2022-07-29T02:34:17;26.43;;;16.67;;
20076;SDS011;12348;42.710;23.378;2022-07-29T02:36:46;26.37;;;17.10;;
20076;SDS011;12348;42.710;23.378;2022-07-29T02:39:13;26.43;;;15.23;;
20076;SDS011;12348;42.710;23.378;2022-07-29T02:41:42;25.20;;;14.83;;
20076;SDS011;12348;42.710;23.378;2022-07-29T02:44:12;27.50;;;16.07;;
20076;SDS011;12348;42.710;23.378;2022-07-29T02:46:43;20.07;;;14.67;;
20076;SDS011;12348;42.710;23.378;2022-07-29T02:49:15;22.53;;;15.17;;
20076;SDS011;12348;42.710;23.378;2022-07-29T02:51:45;21.60;;;14.00;;
20076;SDS011;12348;42.710;23.378;2022-07-29T02:54:19;24.17;;;15.00;;
20076;SDS011;12348;42.710;23.378;2022-07-29T02:56:48;26.50;;;14.30;;
20076;SDS011;12348;42.710;23.378;2022-07-29T02:59:22;20.73;;;13.97;;
20076;SDS011;12348;42.710;23.378;2022-07-29T03:01:53;17.03;;;12.90;;
20076;SDS011;12348;42.710;23.378;2022-07-29T03:04:22;19.90;;;13.83;;
20076;SDS011;12348;42.710;23.378;2022-07-29T03:06:51;15.20;;;11.67;;
20076;SDS011;12348;42.710;23.378;2022-07-29T03:09:19;16.20;;;11.17;;
20076;SDS011;12348;42.710;23.378;2022-07-29T03:11:47;15.63;;;11.57;;
20076;SDS011;12348;42.710;23.378;2022-07-29T03:14:14;15.80;;;12.13;;
20076;SDS011;12348;42.710;23.378;2022-07-29T03:16:42;18.80;;;13.23;;
20076;SDS011;12348;42.710;23.378;2022-07-29T03:19:11;20.77;;;13.70;;
20076;SDS011;12348;42.710;23.378;2022-07-29T03:21:40;20.37;;;14.80;;
20076;SDS011;12348;42.710;23.378;2022-07-29T03:24:07;18.80;;;13.77;;
20076;SDS011;12348;42.710;23.378;2022-07-29T03:26:34;23.27;;;15.23;;
20076;SDS011;12348;42.710;23.378;2022-07-29T03:29:00;21.00;;;15.40;;
20076;SDS011;12348;42.710;23.378;2022-07-29T03:31:27;18.90;;;14.80;;
20076;SDS011;12348;42.710;23.378;2022-07-29T03:33:54;21.37;;;15.20;;
20076;SDS011;12348;42.710;23.378;2022-07-29T03:36:22;22.03;;;15.63;;
20076;SDS011;12348;42.710;23.378;2022-07-29T03:38:49;23.60;;;15.93;;
20076;SDS011;12348;42.710;23.378;2022-07-29T03:41:17;25.90;;;16.97;;
20076;SDS011;12348;42.710;23.378;2022-07-29T03:43:46;27.03;;;15.70;;
20076;SDS011;12348;42.710;23.378;2022-07-29T03:46:14;23.53;;;16.93;;
20076;SDS011;12348;42.710;23.378;2022-07-29T03:48:46;23.17;;;15.87;;
20076;SDS011;12348;42.710;23.378;2022-07-29T03:51:14;26.63;;;15.70;;
20076;SDS011;12348;42.710;23.378;2022-07-29T03:53:42;22.87;;;16.10;;
20076;SDS011;12348;42.710;23.378;2022-07-29T03:56:09;23.17;;;16.27;;
20076;SDS011;12348;42.710;23.378;2022-07-29T03:58:41;25.37;;;14.97;;
20076;SDS011;12348;42.710;23.378;2022-07-29T04:01:09;21.40;;;15.63;;
20076;SDS011;12348;42.710;23.378;2022-07-29T04:03:38;25.03;;;16.37;;
20076;SDS011;12348;42.710;23.378;2022-07-29T04:06:06;24.10;;;15.63;;
20076;SDS011;12348;42.710;23.378;2022-07-29T04:08:35;21.23;;;14.77;;
20076;SDS011;12348;42.710;23.378;2022-07-29T04:11:04;17.27;;;12.77;;
20076;SDS011;12348;42.710;23.378;2022-07-29T04:13:31;15.90;;;12.43;;
20076;SDS011;12348;42.710;23.378;2022-07-29T04:15:58;17.23;;;11.87;;
20076;SDS011;12348;42.710;23.378;2022-07-29T04:18:25;16.27;;;12.07;;
20076;SDS011;12348;42.710;23.378;2022-07-29T04:20:52;16.67;;;11.77;;
20076;SDS011;12348;42.710;23.378;2022-07-29T04:23:19;13.47;;;10.90;;
20076;SDS011;12348;42.710;23.378;2022-07-29T04:25:46;13.90;;;10.07;;
20076;SDS011;12348;42.710;23.378;2022-07-29T04:28:14;14.63;;;10.07;;
20076;SDS011;12348;42.710;23.378;2022-07-29T04:30:41;12.33;;;9.03;;
20076;SDS011;12348;42.710;23.378;2022-07-29T04:33:07;13.17;;;9.23;;
20076;SDS011;12348;42.710;23.378;2022-07-29T04:35:35;10.77;;;8.97;;
20076;SDS011;12348;42.710;23.378;2022-07-29T04:38:03;12.77;;;10.00;;
20076;SDS011;12348;42.710;23.378;2022-07-29T04:40:30;15.27;;;9.00;;
20076;SDS011;12348;42.710;23.378;2022-07-29T04:42:58;13.07;;;9.73;;
20076;SDS011;12348;42.710;23.378;2022-07-29T04:45:27;12.67;;;9.00;;
20076;SDS011;12348;42.710;23.378;2022-07-29T04:47:54;11.93;;;9.67;;
20076;SDS011;12348;42.710;23.378;2022-07-29T04:50:21;16.20;;;10.30;;
20076;SDS011;12348;42.710;23.378;2022-07-29T04:52:48;10.63;;;8.67;;
20076;SDS011;12348;42.710;23.378;2022-07-29T04:55:14;12.47;;;8.53;;
20076;SDS011;12348;42.710;23.378;2022-07-29T04:57:41;12.17;;;9.10;;
20076;SDS011;12348;42.710;23.378;2022-07-29T05:00:08;11.47;;;9.00;;
20076;SDS011;12348;42.710;23.378;2022-07-29T05:02:37;9.83;;;8.17;;
20076;SDS011;12348;42.710;23.378;2022-07-29T05:05:04;11.87;;;7.73;;
20076;SDS011;12348;42.710;23.378;2022-07-29T05:07:31;10.43;;;7.37;;
20076;SDS011;12348;42.710;23.378;2022-07-29T05:09:58;10.93;;;7.33;;
20076;SDS011;12348;42.710;23.378;2022-07-29T05:12:25;12.00;;;7.67;;
20076;SDS011;12348;42.710;23.378;2022-07-29T05:14:53;9.50;;;7.33;;
20076;SDS011;12348;42.710;23.378;2022-07-29T05:17:20;16.03;;;7.90;;
20076;SDS011;12348;42.710;23.378;2022-07-29T05:19:48;10.00;;;7.40;;
20076;SDS011;12348;42.710;23.378;2022-07-29T05:22:16;13.17;;;8.43;;
20076;SDS011;12348;42.710;23.378;2022-07-29T05:24:43;12.97;;;8.80;;
20076;SDS011;12348;42.710;23.378;2022-07-29T05:27:10;15.40;;;7.83;;
20076;SDS011;12348;42.710;23.378;2022-07-29T05:29:37;9.43;;;7.27;;
20076;SDS011;12348;42.710;23.378;2022-07-29T05:32:04;10.43;;;7.67;;
20076;SDS011;12348;42.710;23.378;2022-07-29T05:34:31;10.33;;;6.83;;
20076;SDS011;12348;42.710;23.378;2022-07-29T05:36:59;8.45;;;6.28;;
20076;SDS011;12348;42.710;23.378;2022-07-29T05:39:26;9.23;;;6.87;;
20076;SDS011;12348;42.710;23.378;2022-07-29T05:41:53;9.53;;;6.80;;
20076;SDS011;12348;42.710;23.378;2022-07-29T05:44:19;10.60;;;7.00;;
20076;SDS011;12348;42.710;23.378;2022-07-29T05:46:46;10.13;;;6.23;;
20076;SDS011;12348;42.710;23.378;2022-07-29T05:49:13;7.70;;;5.07;;
20076;SDS011;12348;42.710;23.378;2022-07-29T05:51:40;7.83;;;5.57;;
20076;SDS011;12348;42.710;23.378;2022-07-29T05:54:09;5.60;;;4.87;;
20076;SDS011;12348;42.710;23.378;2022-07-29T05:56:35;5.97;;;5.00;;
20076;SDS011;12348;42.710;23.378;2022-07-29T05:59:03;7.27;;;4.60;;
20076;SDS011;12348;42.710;23.378;2022-07-29T06:01:30;6.37;;;4.90;;
20076;SDS011;12348;42.710;23.378;2022-07-29T06:03:56;11.90;;;4.70;;
20076;SDS011;12348;42.710;23.378;2022-07-29T06:06:23;5.13;;;4.63;;
20076;SDS011;12348;42.710;23.378;2022-07-29T06:08:50;5.73;;;4.87;;
20076;SDS011;12348;42.710;23.378;2022-07-29T06:11:19;4.70;;;4.27;;
20076;SDS011;12348;42.710;23.378;2022-07-29T06:13:45;6.50;;;4.73;;
20076;SDS011;12348;42.710;23.378;2022-07-29T06:16:13;4.67;;;3.80;;
20076;SDS011;12348;42.710;23.378;2022-07-29T06:18:40;6.53;;;4.53;;
20076;SDS011;12348;42.710;23.378;2022-07-29T06:21:07;5.70;;;4.40;;
20076;SDS011;12348;42.710;23.378;2022-07-29T06:23:35;5.07;;;3.80;;
20076;SDS011;12348;42.710;23.378;2022-07-29T06:26:03;7.33;;;4.43;;
20076;SDS011;12348;42.710;23.378;2022-07-29T06:28:31;5.13;;;3.90;;
20076;SDS011;12348;42.710;23.378;2022-07-29T06:30:58;5.63;;;3.53;;
20076;SDS011;12348;42.710;23.378;2022-07-29T06:33:26;4.03;;;3.20;;
20076;SDS011;12348;42.710;23.378;2022-07-29T06:35:53;9.10;;;3.70;;
20076;SDS011;12348;42.710;23.378;2022-07-29T06:38:35;3.33;;;3.03;;
20076;SDS011;12348;42.710;23.378;2022-07-29T06:41:03;5.40;;;3.13;;
20076;SDS011;12348;42.710;23.378;2022-07-29T06:43:33;5.80;;;3.50;;
20076;SDS011;12348;42.710;23.378;2022-07-29T06:46:03;3.27;;;2.90;;
20076;SDS011;12348;42.710;23.378;2022-07-29T06:48:31;4.07;;;3.00;;
20076;SDS011;12348;42.710;23.378;2022-07-29T06:50:58;5.93;;;3.03;;
20076;SDS011;12348;42.710;23.378;2022-07-29T06:53:25;6.40;;;2.77;;
20076;SDS011;12348;42.710;23.378;2022-07-29T06:55:52;3.77;;;2.87;;
20076;SDS011;12348;42.710;23.378;2022-07-29T06:58:19;6.10;;;2.50;;
20076;SDS011;12348;42.710;23.378;2022-07-29T07:00:47;3.53;;;2.90;;
20076;SDS011;12348;42.710;23.378;2022-07-29T07:03:14;4.13;;;2.80;;
20076;SDS011;12348;42.710;23.378;2022-07-29T07:05:41;7.23;;;3.03;;
20076;SDS011;12348;42.710;23.378;2022-07-29T07:08:09;2.90;;;2.60;;
20076;SDS011;12348;42.710;23.378;2022-07-29T07:10:36;5.10;;;3.00;;
20076;SDS011;12348;42.710;23.378;2022-07-29T07:13:03;3.10;;;2.80;;
20076;SDS011;12348;42.710;23.378;2022-07-29T07:15:31;4.40;;;3.23;;
20076;SDS011;12348;42.710;23.378;2022-07-29T07:17:59;3.37;;;2.70;;
20076;SDS011;12348;42.710;23.378;2022-07-29T07:20:26;3.00;;;2.50;;
20076;SDS011;12348;42.710;23.378;2022-07-29T07:22:53;5.47;;;2.63;;
20076;SDS011;12348;42.710;23.378;2022-07-29T07:25:19;2.90;;;2.60;;
20076;SDS011;12348;42.710;23.378;2022-07-29T07:27:46;3.70;;;2.73;;
20076;SDS011;12348;42.710;23.378;2022-07-29T07:30:13;4.20;;;3.10;;
20076;SDS011;12348;42.710;23.378;2022-07-29T07:32:40;3.90;;;3.07;;
20076;SDS011;12348;42.710;23.378;2022-07-29T07:35:09;2.50;;;2.30;;
20076;SDS011;12348;42.710;23.378;2022-07-29T07:37:36;4.13;;;3.33;;
20076;SDS011;12348;42.710;23.378;2022-07-29T07:40:05;3.60;;;2.80;;
20076;SDS011;12348;42.710;23.378;2022-07-29T07:42:34;3.13;;;2.83;;
20076;SDS011;12348;42.710;23.378;2022-07-29T07:45:00;2.90;;;2.40;;
20076;SDS011;12348;42.710;23.378;2022-07-29T07:47:27;6.90;;;2.93;;
20076;SDS011;12348;42.710;23.378;2022-07-29T07:49:54;3.23;;;2.70;;
20076;SDS011;12348;42.710;23.378;2022-07-29T07:52:22;3.33;;;2.80;;
20076;SDS011;12348;42.710;23.378;2022-07-29T07:54:49;3.10;;;2.87;;
20076;SDS011;12348;42.710;23.378;2022-07-29T07:57:16;3.33;;;3.03;;
20076;SDS011;12348;42.710;23.378;2022-07-29T07:59:43;3.10;;;2.60;;
20076;SDS011;12348;42.710;23.378;2022-07-29T08:02:10;5.07;;;2.67;;
20076;SDS011;12348;42.710;23.378;2022-07-29T08:04:37;4.67;;;3.17;;
20076;SDS011;12348;42.710;23.378;2022-07-29T08:07:05;2.93;;;2.60;;
20076;SDS011;12348;42.710;23.378;2022-07-29T08:09:35;5.37;;;2.80;;
20076;SDS011;12348;42.710;23.378;2022-07-29T08:12:02;4.43;;;3.67;;
20076;SDS011;12348;42.710;23.378;2022-07-29T08:14:31;3.63;;;2.83;;
20076;SDS011;12348;42.710;23.378;2022-07-29T08:16:58;4.73;;;2.60;;
20076;SDS011;12348;42.710;23.378;2022-07-29T08:19:24;5.10;;;2.53;;
20076;SDS011;12348;42.710;23.378;2022-07-29T08:21:51;3.77;;;2.30;;
20076;SDS011;12348;42.710;23.378;2022-07-29T08:24:18;4.27;;;3.17;;
20076;SDS011;12348;42.710;23.378;2022-07-29T08:27:04;4.73;;;2.40;;
20076;SDS011;12348;42.710;23.378;2022-07-29T08:29:31;2.67;;;2.40;;
20076;SDS011;12348;42.710;23.378;2022-07-29T08:31:58;3.20;;;2.43;;
20076;SDS011;12348;42.710;23.378;2022-07-29T08:34:24;3.87;;;2.53;;
20076;SDS011;12348;42.710;23.378;2022-07-29T08:36:51;5.03;;;2.50;;
20076;SDS011;12348;42.710;23.378;2022-07-29T08:39:18;3.77;;;2.33;;
20076;SDS011;12348;42.710;23.378;2022-07-29T08:41:45;5.33;;;2.83;;
20076;SDS011;12348;42.710;23.378;2022-07-29T08:44:13;2.87;;;2.57;;
20076;SDS011;12348;42.710;23.378;2022-07-29T08:46:41;3.00;;;2.80;;
20076;SDS011;12348;42.710;23.378;2022-07-29T08:49:08;2.87;;;2.40;;
20076;SDS011;12348;42.710;23.378;2022-07-29T08:51:35;2.97;;;2.40;;
20076;SDS011;12348;42.710;23.378;2022-07-29T08:54:05;3.93;;;2.70;;
20076;SDS011;12348;42.710;23.378;2022-07-29T08:56:34;2.67;;;2.23;;
20076;SDS011;12348;42.710;23.378;2022-07-29T08:59:02;3.53;;;2.93;;
20076;SDS011;12348;42.710;23.378;2022-07-29T09:01:32;4.90;;;2.63;;
20076;SDS011;12348;42.710;23.378;2022-07-29T09:04:00;3.17;;;2.37;;
20076;SDS011;12348;42.710;23.378;2022-07-29T09:06:32;10.10;;;2.67;;
20076;SDS011;12348;42.710;23.378;2022-07-29T09:09:03;4.97;;;2.80;;
20076;SDS011;12348;42.710;23.378;2022-07-29T09:11:31;3.60;;;3.00;;
20076;SDS011;12348;42.710;23.378;2022-07-29T09:13:58;5.50;;;2.53;;
20076;SDS011;12348;42.710;23.378;2022-07-29T09:16:25;4.73;;;2.67;;
20076;SDS011;12348;42.710;23.378;2022-07-29T09:18:53;3.47;;;3.00;;
20076;SDS011;12348;42.710;23.378;2022-07-29T09:21:20;4.97;;;3.37;;
20076;SDS011;12348;42.710;23.378;2022-07-29T09:24:11;3.27;;;2.97;;
20076;SDS011;12348;42.710;23.378;2022-07-29T09:26:39;2.57;;;2.37;;
20076;SDS011;12348;42.710;23.378;2022-07-29T09:29:07;3.07;;;2.30;;
20076;SDS011;12348;42.710;23.378;2022-07-29T09:31:37;2.67;;;2.42;;
20076;SDS011;12348;42.710;23.378;2022-07-29T09:34:06;3.08;;;2.78;;
20076;SDS011;12348;42.710;23.378;2022-07-29T09:36:40;3.20;;;2.63;;
20076;SDS011;12348;42.710;23.378;2022-07-29T09:39:08;3.97;;;2.90;;
20076;SDS011;12348;42.710;23.378;2022-07-29T09:41:47;6.32;;;2.97;;
20076;SDS011;12348;42.710;23.378;2022-07-29T09:44:15;2.90;;;2.60;;
20076;SDS011;12348;42.710;23.378;2022-07-29T09:46:52;3.87;;;2.40;;
20076;SDS011;12348;42.710;23.378;2022-07-29T09:49:21;6.70;;;2.37;;
20076;SDS011;12348;42.710;23.378;2022-07-29T09:51:58;2.33;;;1.98;;
20076;SDS011;12348;42.710;23.378;2022-07-29T09:54:26;4.33;;;1.80;;
20076;SDS011;12348;42.710;23.378;2022-07-29T09:56:54;2.43;;;2.23;;
20076;SDS011;12348;42.710;23.378;2022-07-29T09:59:24;2.33;;;2.10;;
20076;SDS011;12348;42.710;23.378;2022-07-29T10:01:53;3.70;;;2.30;;
20076;SDS011;12348;42.710;23.378;2022-07-29T10:04:20;3.03;;;2.40;;
20076;SDS011;12348;42.710;23.378;2022-07-29T10:06:57;2.40;;;2.17;;
20076;SDS011;12348;42.710;23.378;2022-07-29T10:09:26;8.40;;;5.27;;
20076;SDS011;12348;42.710;23.378;2022-07-29T10:14:44;4.83;;;2.77;;
20076;SDS011;12348;42.710;23.378;2022-07-29T10:17:11;3.03;;;2.40;;
20076;SDS011;12348;42.710;23.378;2022-07-29T10:19:39;3.90;;;2.37;;
20076;SDS011;12348;42.710;23.378;2022-07-29T10:22:08;5.00;;;2.40;;
20076;SDS011;12348;42.710;23.378;2022-07-29T10:24:36;2.20;;;1.90;;
20076;SDS011;12348;42.710;23.378;2022-07-29T10:27:04;2.87;;;2.47;;
20076;SDS011;12348;42.710;23.378;2022-07-29T10:29:32;3.23;;;2.20;;
20076;SDS011;12348;42.710;23.378;2022-07-29T10:32:07;2.97;;;2.63;;
20076;SDS011;12348;42.710;23.378;2022-07-29T10:37:52;3.80;;;2.20;;
20076;SDS011;12348;42.710;23.378;2022-07-29T10:40:39;3.60;;;2.40;;
20076;SDS011;12348;42.710;23.378;2022-07-29T10:43:35;3.13;;;2.83;;
20076;SDS011;12348;42.710;23.378;2022-07-29T10:46:04;4.63;;;2.50;;
20076;SDS011;12348;42.710;23.378;2022-07-29T10:48:31;3.27;;;2.50;;
20076;SDS011;12348;42.710;23.378;2022-07-29T10:51:01;2.57;;;2.37;;
20076;SDS011;12348;42.710;23.378;2022-07-29T10:56:22;2.80;;;2.50;;
20076;SDS011;12348;42.710;23.378;2022-07-29T11:01:51;2.50;;;2.10;;
20076;SDS011;12348;42.710;23.378;2022-07-29T11:07:27;3.10;;;2.70;;
20076;SDS011;12348;42.710;23.378;2022-07-29T11:12:49;3.53;;;2.90;;
20076;SDS011;12348;42.710;23.378;2022-07-29T11:15:17;3.37;;;3.00;;
20076;SDS011;12348;42.710;23.378;2022-07-29T11:18:06;3.03;;;2.73;;
20076;SDS011;12348;42.710;23.378;2022-07-29T11:20:34;3.33;;;3.03;;
20076;SDS011;12348;42.710;23.378;2022-07-29T11:23:21;5.37;;;3.30;;
20076;SDS011;12348;42.710;23.378;2022-07-29T11:28:52;8.67;;;3.23;;
20076;SDS011;12348;42.710;23.378;2022-07-29T11:31:32;4.57;;;3.20;;
20076;SDS011;12348;42.710;23.378;2022-07-29T11:34:20;3.50;;;3.00;;
20076;SDS011;12348;42.710;23.378;2022-07-29T11:39:43;4.07;;;3.30;;
20076;SDS011;12348;42.710;23.378;2022-07-29T11:45:13;4.90;;;3.60;;
20076;SDS011;12348;42.710;23.378;2022-07-29T11:47:47;3.37;;;3.07;;
20076;SDS011;12348;42.710;23.378;2022-07-29T11:50:16;3.53;;;3.10;;
20076;SDS011;12348;42.710;23.378;2022-07-29T11:52:45;4.13;;;3.57;;
20076;SDS011;12348;42.710;23.378;2022-07-29T11:55:15;5.67;;;3.37;;
20076;SDS011;12348;42.710;23.378;2022-07-29T11:57:46;3.50;;;3.10;;
20076;SDS011;12348;42.710;23.378;2022-07-29T12:00:21;11.53;;;3.60;;
20076;SDS011;12348;42.710;23.378;2022-07-29T12:02:50;4.73;;;3.67;;
20076;SDS011;12348;42.710;23.378;2022-07-29T12:05:17;4.63;;;3.30;;
20076;SDS011;12348;42.710;23.378;2022-07-29T12:07:44;4.73;;;3.90;;
20076;SDS011;12348;42.710;23.378;2022-07-29T12:10:12;8.17;;;5.33;;
20076;SDS011;12348;42.710;23.378;2022-07-29T12:12:40;4.07;;;3.53;;
20076;SDS011;12348;42.710;23.378;2022-07-29T12:15:11;4.70;;;3.53;;
20076;SDS011;12348;42.710;23.378;2022-07-29T12:17:40;3.73;;;3.33;;
20076;SDS011;12348;42.710;23.378;2022-07-29T12:20:07;4.40;;;4.00;;
20076;SDS011;12348;42.710;23.378;2022-07-29T12:22:35;4.00;;;3.70;;
20076;SDS011;12348;42.710;23.378;2022-07-29T12:25:05;4.53;;;3.43;;
20076;SDS011;12348;42.710;23.378;2022-07-29T12:27:34;5.77;;;4.30;;
20076;SDS011;12348;42.710;23.378;2022-07-29T12:30:04;5.13;;;3.93;;
20076;SDS011;12348;42.710;23.378;2022-07-29T12:32:33;6.47;;;4.57;;
20076;SDS011;12348;42.710;23.378;2022-07-29T12:35:03;7.07;;;4.20;;
20076;SDS011;12348;42.710;23.378;2022-07-29T12:37:32;4.63;;;4.13;;
20076;SDS011;12348;42.710;23.378;2022-07-29T12:40:00;6.17;;;4.90;;
20076;SDS011;12348;42.710;23.378;2022-07-29T12:42:27;5.73;;;4.83;;
20076;SDS011;12348;42.710;23.378;2022-07-29T12:44:54;8.23;;;4.60;;
20076;SDS011;12348;42.710;23.378;2022-07-29T12:47:22;8.10;;;4.80;;
20076;SDS011;12348;42.710;23.378;2022-07-29T12:49:50;6.63;;;4.70;;
20076;SDS011;12348;42.710;23.378;2022-07-29T12:52:24;4.97;;;4.20;;
20076;SDS011;12348;42.710;23.378;2022-07-29T12:54:51;5.93;;;4.40;;
20076;SDS011;12348;42.710;23.378;2022-07-29T12:57:18;5.43;;;4.53;;
20076;SDS011;12348;42.710;23.378;2022-07-29T12:59:45;4.97;;;4.47;;
20076;SDS011;12348;42.710;23.378;2022-07-29T13:02:26;5.57;;;4.00;;
20076;SDS011;12348;42.710;23.378;2022-07-29T13:04:57;4.53;;;3.70;;
20076;SDS011;12348;42.710;23.378;2022-07-29T13:07:24;4.10;;;3.70;;
20076;SDS011;12348;42.710;23.378;2022-07-29T13:09:53;6.27;;;3.60;;
20076;SDS011;12348;42.710;23.378;2022-07-29T13:12:21;4.70;;;4.20;;
20076;SDS011;12348;42.710;23.378;2022-07-29T13:14:48;3.97;;;3.57;;
20076;SDS011;12348;42.710;23.378;2022-07-29T13:17:16;6.23;;;4.00;;
20076;SDS011;12348;42.710;23.378;2022-07-29T13:19:47;4.77;;;4.37;;
20076;SDS011;12348;42.710;23.378;2022-07-29T13:22:16;5.87;;;4.50;;
20076;SDS011;12348;42.710;23.378;2022-07-29T13:24:47;8.83;;;4.10;;
20076;SDS011;12348;42.710;23.378;2022-07-29T13:27:16;6.20;;;4.23;;
20076;SDS011;12348;42.710;23.378;2022-07-29T13:29:43;6.50;;;4.13;;
20076;SDS011;12348;42.710;23.378;2022-07-29T13:32:10;8.63;;;4.17;;
20076;SDS011;12348;42.710;23.378;2022-07-29T13:34:38;4.57;;;4.17;;
20076;SDS011;12348;42.710;23.378;2022-07-29T13:37:06;4.90;;;4.27;;
20076;SDS011;12348;42.710;23.378;2022-07-29T13:39:33;4.13;;;3.73;;
20076;SDS011;12348;42.710;23.378;2022-07-29T13:41:59;5.83;;;4.23;;
20076;SDS011;12348;42.710;23.378;2022-07-29T13:44:27;5.53;;;3.67;;
20076;SDS011;12348;42.710;23.378;2022-07-29T13:46:54;8.27;;;4.90;;
20076;SDS011;12348;42.710;23.378;2022-07-29T13:49:20;5.07;;;3.83;;
20076;SDS011;12348;42.710;23.378;2022-07-29T13:51:47;4.83;;;4.30;;
20076;SDS011;12348;42.710;23.378;2022-07-29T13:54:16;4.57;;;4.10;;
20076;SDS011;12348;42.710;23.378;2022-07-29T13:56:43;4.70;;;4.17;;
20076;SDS011;12348;42.710;23.378;2022-07-29T13:59:10;4.60;;;4.20;;
20076;SDS011;12348;42.710;23.378;2022-07-29T14:01:37;6.37;;;5.07;;
20076;SDS011;12348;42.710;23.378;2022-07-29T14:04:06;6.13;;;4.30;;
20076;SDS011;12348;42.710;23.378;2022-07-29T14:06:33;7.37;;;5.10;;
20076;SDS011;12348;42.710;23.378;2022-07-29T14:09:00;5.67;;;5.07;;
20076;SDS011;12348;42.710;23.378;2022-07-29T14:11:32;6.47;;;5.00;;
20076;SDS011;12348;42.710;23.378;2022-07-29T14:13:59;5.10;;;4.47;;
20076;SDS011;12348;42.710;23.378;2022-07-29T14:16:26;8.13;;;5.00;;
20076;SDS011;12348;42.710;23.378;2022-07-29T14:18:53;5.53;;;4.00;;
20076;SDS011;12348;42.710;23.378;2022-07-29T14:21:19;6.00;;;4.40;;
20076;SDS011;12348;42.710;23.378;2022-07-29T14:23:46;5.40;;;4.87;;
20076;SDS011;12348;42.710;23.378;2022-07-29T14:26:13;6.33;;;4.70;;
20076;SDS011;12348;42.710;23.378;2022-07-29T14:28:41;6.33;;;5.00;;
20076;SDS011;12348;42.710;23.378;2022-07-29T14:31:09;5.53;;;4.60;;
20076;SDS011;12348;42.710;23.378;2022-07-29T14:33:36;5.23;;;4.30;;
20076;SDS011;12348;42.710;23.378;2022-07-29T14:36:03;4.80;;;3.80;;
20076;SDS011;12348;42.710;23.378;2022-07-29T14:38:30;5.37;;;4.53;;
20076;SDS011;12348;42.710;23.378;2022-07-29T14:40:57;5.17;;;4.67;;
20076;SDS011;12348;42.710;23.378;2022-07-29T14:43:23;8.07;;;5.00;;
20076;SDS011;12348;42.710;23.378;2022-07-29T14:45:52;4.97;;;4.33;;
20076;SDS011;12348;42.710;23.378;2022-07-29T14:48:19;5.33;;;4.70;;
20076;SDS011;12348;42.710;23.378;2022-07-29T14:50:45;5.40;;;3.47;;
20076;SDS011;12348;42.710;23.378;2022-07-29T14:53:13;6.13;;;4.73;;
20076;SDS011;12348;42.710;23.378;2022-07-29T14:55:40;4.87;;;4.37;;
20076;SDS011;12348;42.710;23.378;2022-07-29T14:58:07;6.90;;;4.10;;
20076;SDS011;12348;42.710;23.378;2022-07-29T15:00:34;9.83;;;5.27;;
20076;SDS011;12348;42.710;23.378;2022-07-29T15:03:03;4.77;;;4.23;;
20076;SDS011;12348;42.710;23.378;2022-07-29T15:05:30;6.33;;;4.60;;